aviador You're here:

KLTS Decoded Metar

ALTUS in OK, USA
Report Time2017-08-21 12:58:00
UTC Time2017-08-21 13:53:23
Flight Rules vfr VFR
Wind360° at 08 kt
W.Decomp.*RWY 35: 8.0 kt HW 0.3 kt RCW
Visibility9999 m
Phenomena:N/A
Clouds:N/A
Expected CloudBase > 1,200 ft AGL from Temp-Dew spread
CeilingNone
Temp23°C (ISA +11)
Dew Point20°C (83% RH)
QNH1017 hPa
Density Alt2,805 ft
Elevation1,378 ft
Report Wrong Elevation
Raw Report
KLTS 211258Z AUTO 36008KT 10SM CLR 23/20 A3004 RMK AO2 SLP157
T02280202 $=

Extra information for KLTS:More info

Metar Taf Metar & Taf Last 4 Metars F.Rules Stats Wind Profile Meteogram Temp Stats Airport Information Weather charts Add Link Nearby VenuesMetar ALERT Operation Metar Decoded Social comments

AIRNAV info for KLTS